createdAt,value
2024-01-25T00:09:22.898Z,92.40
2024-01-25T00:11:50.722Z,92.00
2024-01-25T00:14:18.744Z,92.40
2024-01-25T00:16:46.387Z,92.20
2024-01-25T00:19:14.057Z,92.10
2024-01-25T00:21:45.667Z,91.20
2024-01-25T00:24:14.240Z,92.20
2024-01-25T00:26:41.863Z,92.60
2024-01-25T00:29:09.459Z,91.80
2024-01-25T00:31:37.285Z,91.80
2024-01-25T00:34:05.619Z,92.30
2024-01-25T00:36:33.564Z,91.80
2024-01-25T00:39:01.429Z,92.20
2024-01-25T00:41:33.232Z,93.20
2024-01-25T00:44:01.380Z,93.10
2024-01-25T00:46:29.347Z,93.40
2024-01-25T00:48:57.521Z,92.10
2024-01-25T00:51:25.464Z,92.90
2024-01-25T00:53:53.388Z,92.60
2024-01-25T00:56:21.257Z,93.80
2024-01-25T00:58:49.445Z,93.40
2024-01-25T01:01:17.726Z,93.20
2024-01-25T01:03:46.031Z,92.60
2024-01-25T01:06:14.027Z,93.00
2024-01-25T01:08:42.082Z,92.20
2024-01-25T01:11:09.661Z,92.80
2024-01-25T01:13:37.181Z,92.90
2024-01-25T01:16:05.197Z,93.00
2024-01-25T01:18:33.225Z,92.90
2024-01-25T01:21:01.163Z,93.70
2024-01-25T01:23:28.825Z,92.40
2024-01-25T01:25:56.380Z,92.90
2024-01-25T01:28:24.027Z,92.80
2024-01-25T01:30:51.919Z,93.60
2024-01-25T01:33:19.699Z,93.70
2024-01-25T01:35:47.391Z,92.50
2024-01-25T01:38:15.143Z,93.70
2024-01-25T01:40:42.769Z,92.30
2024-01-25T01:55:14.151Z,92.70
2024-01-25T01:57:42.833Z,91.60
2024-01-25T02:00:11.070Z,91.20
2024-01-25T02:02:41.579Z,90.40
2024-01-25T02:05:09.826Z,91.30
2024-01-25T02:07:39.463Z,90.50
2024-01-25T02:10:08.612Z,88.90
2024-01-25T02:12:37.190Z,90.70
2024-01-25T02:15:05.261Z,90.30
2024-01-25T02:17:33.213Z,89.70
2024-01-25T02:20:03.839Z,90.70
2024-01-25T02:22:31.687Z,90.20
2024-01-25T02:24:59.390Z,89.90
2024-01-25T02:27:27.007Z,89.80
2024-01-25T02:29:54.623Z,87.70
2024-01-25T02:32:22.988Z,89.30
2024-01-25T02:34:50.693Z,88.80
2024-01-25T02:37:18.359Z,86.80
2024-01-25T02:39:46.278Z,87.90
2024-01-25T02:42:15.358Z,89.50
2024-01-25T02:44:42.939Z,90.20
2024-01-25T02:47:10.883Z,89.30
2024-01-25T02:49:38.925Z,87.60
2024-01-25T02:52:06.763Z,88.90
2024-01-25T02:54:40.191Z,86.80
2024-01-25T02:57:07.824Z,87.70
2024-01-25T02:59:35.398Z,88.40
2024-01-25T03:02:03.036Z,89.80
2024-01-25T03:04:30.767Z,89.20
2024-01-25T03:06:58.639Z,90.00
2024-01-25T03:09:26.289Z,90.00
2024-01-25T03:11:53.860Z,88.30
2024-01-25T03:14:21.412Z,88.30
2024-01-25T03:16:48.950Z,89.20
2024-01-25T03:19:16.681Z,88.00
2024-01-25T03:21:44.353Z,88.20
2024-01-25T03:24:12.254Z,90.00
2024-01-25T03:26:39.946Z,90.00
2024-01-25T03:29:07.557Z,90.40
2024-01-25T03:31:35.660Z,90.00
2024-01-25T03:34:04.160Z,90.40
2024-01-25T03:36:32.609Z,90.30
2024-01-25T03:39:00.364Z,90.30
2024-01-25T03:41:30.262Z,90.10
2024-01-25T03:43:57.918Z,90.10
2024-01-25T03:46:25.639Z,88.90
2024-01-25T03:48:55.902Z,90.10
2024-01-25T03:51:25.310Z,90.40
2024-01-25T03:53:54.132Z,90.60
2024-01-25T03:56:23.895Z,90.00
2024-01-25T03:58:51.595Z,90.40
2024-01-25T04:01:19.521Z,91.00
2024-01-25T04:03:47.285Z,90.70
2024-01-25T04:06:15.087Z,90.60
2024-01-25T04:08:42.761Z,90.80
2024-01-25T04:11:10.488Z,90.60
2024-01-25T04:13:38.136Z,90.40
2024-01-25T04:16:07.267Z,90.80
2024-01-25T04:18:35.098Z,90.70
2024-01-25T04:21:02.908Z,91.30
2024-01-25T04:23:30.502Z,90.80
2024-01-25T04:25:58.058Z,91.00
2024-01-25T04:28:25.917Z,91.00
2024-01-25T04:30:53.796Z,90.50
2024-01-25T04:33:21.834Z,90.50
2024-01-25T04:35:49.569Z,91.00
2024-01-25T04:38:17.090Z,91.10
2024-01-25T04:40:44.658Z,91.00
2024-01-25T04:43:12.889Z,90.80
2024-01-25T04:45:40.933Z,90.70
2024-01-25T04:48:08.882Z,91.00
2024-01-25T04:50:36.869Z,90.80
2024-01-25T04:53:04.742Z,90.70
2024-01-25T04:55:32.324Z,90.80
2024-01-25T04:57:59.990Z,91.60
2024-01-25T05:12:15.960Z,90.80
2024-01-25T05:14:43.729Z,91.00
2024-01-25T05:17:11.586Z,91.40
2024-01-25T05:19:39.255Z,91.30
2024-01-25T05:22:08.644Z,90.80
2024-01-25T05:24:36.372Z,91.10
2024-01-25T05:27:04.265Z,90.60
2024-01-25T05:29:31.785Z,90.40
2024-01-25T05:44:53.225Z,90.20
2024-01-25T05:47:20.856Z,90.50
2024-01-25T05:49:48.623Z,90.50
2024-01-25T05:52:16.416Z,91.00
2024-01-25T05:54:44.689Z,90.70
2024-01-25T05:57:12.683Z,91.00
2024-01-25T05:59:40.589Z,90.80
2024-01-25T06:02:09.805Z,90.70
2024-01-25T06:04:37.719Z,90.80
2024-01-25T06:07:05.663Z,90.60
2024-01-25T06:09:33.336Z,90.80
2024-01-25T06:12:01.006Z,90.40
2024-01-25T06:14:28.575Z,90.90
2024-01-25T06:16:56.105Z,90.60
2024-01-25T06:19:23.950Z,90.20
2024-01-25T06:21:51.775Z,90.20
2024-01-25T06:24:19.967Z,90.60
2024-01-25T06:26:47.593Z,90.70
2024-01-25T06:29:15.652Z,90.10
2024-01-25T06:31:44.758Z,90.70
2024-01-25T06:34:13.352Z,90.50
2024-01-25T06:36:41.086Z,90.70
2024-01-25T06:39:09.494Z,90.40
2024-01-25T06:41:37.111Z,90.80
2024-01-25T06:44:05.021Z,91.30
2024-01-25T06:46:32.666Z,90.70
2024-01-25T06:49:00.489Z,90.60
2024-01-25T06:51:28.322Z,90.40
2024-01-25T06:53:55.953Z,91.10
2024-01-25T06:56:23.559Z,91.20
2024-01-25T06:58:51.331Z,90.90
2024-01-25T07:01:24.842Z,91.20
2024-01-25T07:03:53.137Z,91.10
2024-01-25T07:06:21.717Z,90.40
2024-01-25T07:08:50.238Z,91.10
2024-01-25T07:11:18.921Z,90.20
2024-01-25T07:13:46.572Z,90.10
2024-01-25T07:16:14.771Z,90.80
2024-01-25T07:18:42.628Z,90.20
2024-01-25T07:33:48.642Z,91.00
2024-01-25T07:36:17.831Z,90.20
2024-01-25T07:38:48.350Z,90.10
2024-01-25T07:41:16.915Z,89.80
2024-01-25T07:43:44.614Z,90.80
2024-01-25T07:46:12.373Z,90.00
2024-01-25T07:48:41.192Z,90.30
2024-01-25T07:51:15.681Z,89.80
2024-01-25T07:53:43.325Z,90.10
2024-01-25T07:56:12.191Z,90.00
2024-01-25T08:10:51.538Z,87.90
2024-01-25T08:13:19.390Z,87.90
2024-01-25T08:15:47.068Z,87.70
2024-01-25T08:18:15.118Z,86.80
2024-01-25T08:20:43.074Z,86.70
2024-01-25T08:23:10.685Z,85.70
2024-01-25T08:25:38.335Z,87.40
2024-01-25T08:28:06.605Z,86.20
2024-01-25T08:30:34.346Z,87.90
2024-01-25T08:33:02.753Z,86.20
2024-01-25T08:35:31.984Z,87.60
2024-01-25T08:37:59.817Z,86.20
2024-01-25T08:40:30.342Z,87.20
2024-01-25T08:42:58.426Z,87.70
2024-01-25T08:45:26.223Z,86.30
2024-01-25T08:47:55.611Z,86.70
2024-01-25T08:50:25.717Z,86.30
2024-01-25T08:52:54.816Z,84.80
2024-01-25T08:55:23.145Z,85.90
2024-01-25T08:57:51.358Z,87.90
2024-01-25T09:00:19.732Z,86.20
2024-01-25T09:02:47.582Z,87.00
2024-01-25T09:05:16.062Z,87.70
2024-01-25T09:07:44.106Z,86.90
2024-01-25T09:10:12.594Z,86.10
2024-01-25T09:12:40.757Z,86.50
2024-01-25T09:15:09.689Z,88.40
2024-01-25T09:17:38.092Z,87.60
2024-01-25T09:20:07.764Z,87.20
2024-01-25T09:22:35.774Z,87.80
2024-01-25T09:25:04.473Z,88.50
2024-01-25T09:27:32.729Z,88.30
2024-01-25T09:30:00.678Z,88.30
2024-01-25T09:32:28.431Z,88.50
2024-01-25T09:34:56.541Z,88.60
2024-01-25T09:37:25.730Z,86.80
2024-01-25T09:39:53.963Z,88.90
2024-01-25T09:42:23.224Z,88.70
2024-01-25T09:44:51.728Z,89.00
2024-01-25T09:47:22.378Z,88.90
2024-01-25T09:49:50.455Z,86.90
2024-01-25T09:52:20.809Z,87.10
2024-01-25T09:54:48.651Z,87.10
2024-01-25T09:57:18.750Z,86.70
2024-01-25T09:59:47.305Z,87.00
2024-01-25T10:02:15.235Z,86.00
2024-01-25T10:04:43.223Z,86.70
2024-01-25T10:07:11.051Z,87.70
2024-01-25T10:09:43.548Z,86.10
2024-01-25T10:12:18.261Z,87.60
2024-01-25T10:14:47.138Z,85.20
2024-01-25T10:17:14.890Z,85.40
2024-01-25T10:19:46.231Z,86.30
2024-01-25T10:22:16.496Z,86.40
2024-01-25T10:24:44.739Z,87.30
2024-01-25T10:27:13.590Z,87.10
2024-01-25T10:29:41.423Z,86.50
2024-01-25T10:32:10.814Z,87.40
2024-01-25T10:34:39.189Z,86.10
2024-01-25T10:37:08.906Z,85.40
2024-01-25T10:39:37.397Z,86.40
2024-01-25T10:42:06.147Z,85.80
2024-01-25T10:44:33.780Z,87.20
2024-01-25T10:47:01.868Z,86.60
2024-01-25T10:49:31.060Z,84.90
2024-01-25T10:51:59.410Z,85.00
2024-01-25T10:54:27.304Z,85.40
2024-01-25T10:56:55.042Z,85.40
2024-01-25T10:59:26.435Z,84.50
2024-01-25T11:01:55.932Z,85.40
2024-01-25T11:04:24.957Z,86.80
2024-01-25T11:06:52.889Z,85.40
2024-01-25T11:09:22.579Z,85.90
2024-01-25T11:11:51.444Z,85.10
2024-01-25T11:14:21.052Z,85.80
2024-01-25T11:16:49.106Z,86.10
2024-01-25T11:19:23.687Z,84.40
2024-01-25T11:21:53.881Z,86.60
2024-01-25T11:24:23.586Z,86.70
2024-01-25T11:26:51.871Z,85.40
2024-01-25T11:29:23.724Z,86.50
2024-01-25T11:31:53.350Z,85.20
2024-01-25T11:34:22.520Z,84.50
2024-01-25T11:36:50.542Z,84.40
2024-01-25T11:39:18.648Z,83.10
2024-01-25T11:41:46.551Z,83.50
2024-01-25T11:44:15.176Z,83.30
2024-01-25T11:46:43.928Z,85.20
2024-01-25T11:49:12.032Z,85.00
2024-01-25T11:51:40.325Z,83.60
2024-01-25T11:54:09.171Z,83.50
2024-01-25T11:56:42.449Z,86.40
2024-01-25T11:59:11.668Z,84.90
2024-01-25T12:01:40.666Z,85.40
2024-01-25T12:04:09.481Z,83.60
2024-01-25T12:06:37.731Z,84.30
2024-01-25T12:09:12.417Z,86.30
2024-01-25T12:11:42.429Z,86.40
2024-01-25T12:14:11.048Z,86.60
2024-01-25T12:16:39.883Z,84.00
2024-01-25T12:19:09.059Z,85.00
2024-01-25T12:21:38.029Z,84.80
2024-01-25T12:24:09.449Z,84.10
2024-01-25T12:26:38.132Z,82.60
2024-01-25T12:29:06.434Z,84.40
2024-01-25T12:31:34.365Z,83.60
2024-01-25T12:34:02.713Z,83.80
2024-01-25T12:36:30.584Z,81.90
2024-01-25T12:38:58.166Z,82.60
2024-01-25T12:41:27.765Z,82.50
2024-01-25T12:43:55.532Z,81.90
2024-01-25T12:46:27.533Z,82.20
2024-01-25T12:48:58.814Z,80.50
2024-01-25T12:51:27.679Z,81.80
2024-01-25T12:53:55.605Z,81.80
2024-01-25T12:56:23.525Z,82.20
2024-01-25T12:58:51.277Z,81.10
2024-01-25T13:01:22.210Z,81.00
2024-01-25T13:03:50.298Z,81.90
2024-01-25T13:06:18.128Z,81.00
2024-01-25T13:08:46.298Z,80.40
2024-01-25T13:11:14.042Z,81.80
2024-01-25T13:13:41.645Z,80.70
2024-01-25T13:16:10.091Z,79.40
2024-01-25T13:30:13.724Z,80.30
2024-01-25T13:32:41.812Z,80.40
2024-01-25T13:35:09.666Z,80.20
2024-01-25T13:37:37.330Z,79.60
2024-01-25T13:40:05.459Z,80.00
2024-01-25T13:42:33.095Z,81.00
2024-01-25T13:45:00.643Z,81.10
2024-01-25T13:47:28.293Z,79.10
2024-01-25T13:49:55.898Z,80.10
2024-01-25T13:52:23.664Z,79.40
2024-01-25T13:54:51.334Z,80.80
2024-01-25T13:57:21.870Z,80.80
2024-01-25T13:59:49.639Z,80.10
2024-01-25T14:02:17.178Z,80.40
2024-01-25T14:04:44.882Z,82.00
2024-01-25T14:07:16.481Z,81.00
2024-01-25T14:09:44.684Z,79.60
2024-01-25T14:12:12.624Z,80.40
2024-01-25T14:14:40.754Z,79.80
2024-01-25T14:17:08.334Z,80.60
2024-01-25T14:19:36.494Z,80.30
2024-01-25T14:22:16.331Z,80.30
2024-01-25T14:24:53.019Z,81.30
2024-01-25T14:27:20.948Z,80.30
2024-01-25T14:29:48.577Z,81.30
2024-01-25T14:32:16.158Z,80.30
2024-01-25T14:34:44.063Z,81.10
2024-01-25T14:37:11.647Z,80.20
2024-01-25T14:39:41.205Z,80.30
2024-01-25T14:42:12.395Z,82.20
2024-01-25T14:44:41.124Z,80.30
2024-01-25T14:47:08.849Z,81.00
2024-01-25T14:49:36.759Z,80.40
2024-01-25T14:52:04.687Z,80.50
2024-01-25T14:54:32.372Z,82.90
2024-01-25T14:57:00.256Z,82.50
2024-01-25T14:59:27.962Z,82.00
2024-01-25T15:01:55.574Z,82.50
2024-01-25T15:04:23.972Z,81.30
2024-01-25T15:06:51.821Z,81.40
2024-01-25T15:09:19.443Z,81.20
2024-01-25T15:11:47.898Z,81.80
2024-01-25T15:14:15.665Z,83.00
2024-01-25T15:16:43.167Z,81.80
2024-01-25T15:19:10.864Z,82.00
2024-01-25T15:21:38.846Z,81.10
2024-01-25T15:24:06.710Z,82.30
2024-01-25T15:26:34.361Z,81.70
2024-01-25T15:29:02.042Z,82.70
2024-01-25T15:31:29.747Z,82.00
2024-01-25T15:33:57.551Z,82.20
2024-01-25T15:36:25.309Z,82.00
2024-01-25T15:38:52.903Z,83.30
2024-01-25T15:41:22.882Z,82.80
2024-01-25T15:43:50.515Z,83.70
2024-01-25T15:46:19.480Z,82.70
2024-01-25T15:48:47.353Z,83.50
2024-01-25T15:51:15.100Z,83.70
2024-01-25T15:53:42.854Z,83.30
2024-01-25T15:56:10.497Z,83.50
2024-01-25T15:58:38.066Z,81.50
2024-01-25T16:01:05.787Z,83.10
2024-01-25T16:03:33.407Z,82.50
2024-01-25T16:06:01.383Z,84.10
2024-01-25T16:08:29.000Z,83.30
2024-01-25T16:10:56.526Z,83.00
2024-01-25T16:13:24.178Z,83.00
2024-01-25T16:15:51.747Z,83.70
2024-01-25T16:18:19.635Z,83.00
2024-01-25T16:20:47.321Z,83.00
2024-01-25T16:23:15.035Z,83.40
2024-01-25T16:25:42.694Z,82.50
2024-01-25T16:28:10.368Z,82.70
2024-01-25T16:30:38.066Z,81.60
2024-01-25T16:33:05.787Z,81.10
2024-01-25T16:35:33.646Z,81.50
2024-01-25T16:38:01.206Z,82.30
2024-01-25T16:40:28.762Z,82.90
2024-01-25T16:42:56.833Z,82.10
2024-01-25T16:45:26.451Z,83.10
2024-01-25T16:47:54.094Z,82.70
2024-01-25T16:50:21.774Z,82.40
2024-01-25T16:52:50.890Z,83.60
2024-01-25T16:55:18.507Z,81.80
2024-01-25T16:57:46.080Z,82.30
2024-01-25T17:00:17.043Z,83.30
2024-01-25T17:02:46.100Z,83.20
2024-01-25T17:05:14.363Z,83.40
2024-01-25T17:07:41.944Z,83.20
2024-01-25T17:10:10.977Z,82.70
2024-01-25T17:12:38.652Z,83.60
2024-01-25T17:15:06.672Z,83.60
2024-01-25T17:17:35.218Z,83.90
2024-01-25T17:20:04.442Z,84.70
2024-01-25T17:22:32.353Z,83.60
2024-01-25T17:25:03.511Z,83.20
2024-01-25T17:27:31.204Z,83.80
2024-01-25T17:29:59.003Z,84.50
2024-01-25T17:32:26.982Z,83.80
2024-01-25T17:34:56.998Z,83.50
2024-01-25T17:37:24.586Z,83.80
2024-01-25T17:39:52.381Z,84.70
2024-01-25T17:42:20.072Z,83.90
2024-01-25T17:44:47.617Z,84.40
2024-01-25T17:47:15.240Z,84.50
2024-01-25T17:49:43.090Z,83.20
2024-01-25T17:52:13.428Z,84.10
2024-01-25T17:54:41.485Z,83.80
2024-01-25T17:57:10.691Z,85.00
2024-01-25T17:59:38.294Z,84.40
2024-01-25T18:02:07.718Z,83.90
2024-01-25T18:04:35.790Z,83.60
2024-01-25T18:07:03.578Z,84.80
2024-01-25T18:09:31.642Z,84.00
2024-01-25T18:11:59.242Z,85.20
2024-01-25T18:14:27.611Z,85.80
2024-01-25T18:16:55.527Z,84.20
2024-01-25T18:19:27.503Z,85.20
2024-01-25T18:21:56.085Z,86.00
2024-01-25T18:24:24.169Z,85.50
2024-01-25T18:26:51.959Z,85.80
2024-01-25T18:29:20.115Z,86.20
2024-01-25T18:31:48.077Z,85.30
2024-01-25T18:34:16.137Z,85.70
2024-01-25T18:36:44.872Z,85.40
2024-01-25T18:39:12.988Z,85.20
2024-01-25T18:41:41.187Z,85.30
2024-01-25T18:44:09.565Z,86.50
2024-01-25T18:46:38.313Z,86.80
2024-01-25T18:49:07.227Z,87.10
2024-01-25T18:51:36.292Z,86.30
2024-01-25T18:54:07.910Z,84.30
2024-01-25T18:56:37.483Z,85.90
2024-01-25T18:59:06.820Z,86.20
2024-01-25T19:01:36.305Z,86.00
2024-01-25T19:04:05.377Z,86.50
2024-01-25T19:06:36.164Z,86.70
2024-01-25T19:09:06.805Z,86.30
2024-01-25T19:11:36.991Z,85.40
2024-01-25T19:14:05.864Z,84.00
2024-01-25T19:16:34.766Z,86.10
2024-01-25T19:19:03.490Z,85.80
2024-01-25T19:21:32.460Z,85.30
2024-01-25T19:24:02.724Z,85.70
2024-01-25T19:26:34.212Z,84.60
2024-01-25T19:29:02.878Z,85.10
2024-01-25T19:31:32.300Z,85.10
2024-01-25T19:34:01.203Z,84.80
2024-01-25T19:36:29.949Z,86.10
2024-01-25T19:38:58.769Z,85.00
2024-01-25T19:41:27.358Z,84.00
2024-01-25T19:43:56.038Z,84.80
2024-01-25T19:46:25.174Z,84.70
2024-01-25T19:48:54.293Z,84.60
2024-01-25T19:51:23.346Z,84.00
2024-01-25T19:53:52.134Z,84.10
2024-01-25T19:56:21.678Z,83.50
2024-01-25T19:58:50.911Z,83.40
2024-01-25T20:01:20.436Z,83.40
2024-01-25T20:03:49.931Z,85.30
2024-01-25T20:06:20.051Z,85.00
2024-01-25T20:08:49.758Z,84.90
2024-01-25T20:11:18.468Z,84.70
2024-01-25T20:13:47.180Z,84.60
2024-01-25T20:16:17.092Z,83.90
2024-01-25T20:18:46.384Z,85.10
2024-01-25T20:21:16.692Z,85.00
2024-01-25T20:23:45.614Z,85.40
2024-01-25T20:26:16.747Z,85.00
2024-01-25T20:28:45.783Z,85.50
2024-01-25T20:31:15.494Z,86.20
2024-01-25T20:33:44.707Z,85.00
2024-01-25T20:36:13.963Z,84.40
2024-01-25T20:38:42.966Z,83.70
2024-01-25T20:41:12.473Z,84.40
2024-01-25T20:43:41.265Z,86.50
2024-01-25T20:46:09.975Z,85.60
2024-01-25T20:48:40.077Z,84.80
2024-01-25T20:51:08.609Z,85.00
2024-01-25T20:53:36.869Z,85.20
2024-01-25T20:56:05.343Z,84.70
2024-01-25T20:58:34.269Z,86.50
2024-01-25T21:01:02.397Z,86.50
2024-01-25T21:03:30.755Z,85.30
2024-01-25T21:05:58.973Z,85.00
2024-01-25T21:08:27.073Z,84.90
2024-01-25T21:10:55.358Z,86.10
2024-01-25T21:13:23.468Z,85.20
2024-01-25T21:15:51.132Z,85.20
2024-01-25T21:18:19.148Z,85.00
2024-01-25T21:20:46.889Z,86.30
2024-01-25T21:23:14.500Z,86.70
2024-01-25T21:25:42.216Z,86.70
2024-01-25T21:28:10.042Z,87.30
2024-01-25T21:30:38.117Z,88.30
2024-01-25T21:33:05.916Z,89.10
2024-01-25T21:35:52.115Z,89.30
2024-01-25T21:38:23.281Z,89.60
2024-01-25T21:40:50.898Z,88.80
2024-01-25T21:43:18.752Z,89.20
2024-01-25T21:45:46.482Z,89.50
2024-01-25T21:48:14.206Z,89.10
2024-01-25T21:50:43.022Z,90.00
2024-01-25T21:53:10.741Z,89.00
2024-01-25T21:55:41.476Z,90.00
2024-01-25T21:58:09.515Z,88.80
2024-01-25T22:00:38.012Z,89.30
2024-01-25T22:03:05.934Z,89.00
2024-01-25T22:05:33.868Z,89.20
2024-01-25T22:08:03.750Z,88.50
2024-01-25T22:10:31.446Z,89.40
2024-01-25T22:12:59.955Z,89.10
2024-01-25T22:15:27.871Z,88.70
2024-01-25T22:17:55.969Z,88.90
2024-01-25T22:20:23.775Z,89.60
2024-01-25T22:22:51.499Z,90.00
2024-01-25T22:25:19.160Z,89.80
2024-01-25T22:27:46.821Z,90.10
2024-01-25T22:30:16.784Z,90.10
2024-01-25T22:32:45.840Z,89.30
2024-01-25T22:35:13.672Z,87.70
2024-01-25T22:37:41.408Z,88.80
2024-01-25T22:40:09.585Z,87.50
2024-01-25T22:42:37.206Z,87.30
2024-01-25T22:45:05.263Z,87.40
2024-01-25T22:47:32.878Z,87.30
2024-01-25T22:50:01.227Z,88.70
2024-01-25T22:52:29.074Z,88.20
2024-01-25T22:54:57.009Z,88.10
2024-01-25T22:57:25.099Z,86.80
2024-01-25T22:59:53.970Z,87.70
2024-01-25T23:02:22.562Z,89.00
2024-01-25T23:04:51.228Z,88.40
2024-01-25T23:07:19.126Z,87.50
2024-01-25T23:09:46.955Z,87.80
2024-01-25T23:12:14.799Z,87.20
2024-01-25T23:14:44.468Z,89.20
2024-01-25T23:17:12.369Z,87.30
2024-01-25T23:19:40.060Z,87.70
2024-01-25T23:22:09.425Z,88.40
2024-01-25T23:24:37.111Z,89.40
2024-01-25T23:27:04.971Z,88.00
2024-01-25T23:29:32.509Z,89.10
2024-01-25T23:32:00.279Z,88.80
2024-01-25T23:34:28.409Z,88.00
2024-01-25T23:36:56.248Z,89.80
2024-01-25T23:39:24.029Z,88.00
2024-01-25T23:41:51.786Z,89.90
2024-01-25T23:44:19.847Z,88.00
2024-01-25T23:46:47.637Z,87.80
2024-01-25T23:49:19.134Z,88.50
2024-01-25T23:51:47.984Z,89.20
2024-01-25T23:54:15.858Z,89.00
2024-01-25T23:56:44.385Z,88.80
2024-01-25T23:59:13.991Z,88.30
